Time;durP1;ratioP1;P1;durP2;ratioP2;P2;SDS_P1;SDS_P2;PMS_P1;PMS_P2;Temp;Humidity;BMP_temperature;BMP_pressure;BME280_temperature;BME280_humidity;BME280_pressure;Samples;Min_cycle;Max_cycle;Signal;HPM_P1;HPM_P2
2023/12/15 00:01:44;;;;;;;2.72;2.53;;;;;;;;;;5054061;28;20386;-82
2023/12/15 00:04:10;;;;;;;2.92;2.72;;;;;;;;;;5053609;28;20429;-82
2023/12/15 00:06:36;;;;;;;3.28;3.08;;;;;;;;;;5054010;28;20731;-82
2023/12/15 00:09:02;;;;;;;3.15;2.95;;;;;;;;;;5053915;28;20381;-82
2023/12/15 00:11:28;;;;;;;2.78;2.58;;;;;;;;;;5053712;28;20437;-82
2023/12/15 00:13:54;;;;;;;3.23;3.03;;;;;;;;;;5053898;28;20803;-82
2023/12/15 00:16:20;;;;;;;3.72;3.42;;;;;;;;;;5053553;28;20416;-82
2023/12/15 00:18:46;;;;;;;3.72;3.35;;;;;;;;;;5067283;28;20372;-82
2023/12/15 00:21:12;;;;;;;3.45;3.25;;;;;;;;;;5053575;28;20538;-82
2023/12/15 00:23:38;;;;;;;3.80;3.50;;;;;;;;;;5053910;28;20993;-82
2023/12/15 00:26:05;;;;;;;3.55;3.25;;;;;;;;;;5068029;28;20377;-81
2023/12/15 00:28:31;;;;;;;3.80;3.50;;;;;;;;;;5068943;28;20387;-82
2023/12/15 00:30:57;;;;;;;3.80;3.50;;;;;;;;;;5063483;28;20375;-81
2023/12/15 00:33:23;;;;;;;3.45;3.15;;;;;;;;;;5067493;28;20455;-82
2023/12/15 00:35:49;;;;;;;3.80;3.50;;;;;;;;;;5057085;28;20730;-82
2023/12/15 00:38:15;;;;;;;3.70;3.40;;;;;;;;;;5057603;28;20377;-82
2023/12/15 00:40:41;;;;;;;3.67;3.38;;;;;;;;;;5057374;28;20720;-82
2023/12/15 00:43:07;;;;;;;4.03;3.72;;;;;;;;;;5057564;28;20404;-82
2023/12/15 00:45:33;;;;;;;3.90;3.60;;;;;;;;;;5058957;28;20882;-82
2023/12/15 00:47:59;;;;;;;3.88;3.58;;;;;;;;;;5058068;28;20480;-82
2023/12/15 00:50:28;;;;;;;4.03;3.72;;;;;;;;;;5057365;28;20747;-82
2023/12/15 00:52:54;;;;;;;4.17;3.87;;;;;;;;;;5070451;28;20376;-82
2023/12/15 00:55:20;;;;;;;4.32;4.03;;;;;;;;;;5057120;28;20397;-82
2023/12/15 00:57:46;;;;;;;4.03;3.72;;;;;;;;;;5057696;28;20735;-81
2023/12/15 01:00:13;;;;;;;4.10;3.80;;;;;;;;;;5070649;28;20384;-82
2023/12/15 01:02:38;;;;;;;3.63;3.42;;;;;;;;;;5057437;28;20389;-82
2023/12/15 01:05:05;;;;;;;4.07;3.77;;;;;;;;;;5062472;28;20404;-82
2023/12/15 01:07:31;;;;;;;3.92;3.63;;;;;;;;;;5060790;28;20376;-82
2023/12/15 01:09:57;;;;;;;4.00;3.60;;;;;;;;;;5059181;28;20390;-82
2023/12/15 01:12:23;;;;;;;4.07;3.78;;;;;;;;;;5057411;28;20386;-82
2023/12/15 01:14:49;;;;;;;4.73;4.40;;;;;;;;;;5056847;28;20875;-81
2023/12/15 01:17:15;;;;;;;4.25;3.85;;;;;;;;;;5042203;28;20448;-81
2023/12/15 01:19:41;;;;;;;4.40;4.10;;;;;;;;;;5068117;28;20435;-82
2023/12/15 01:22:07;;;;;;;4.18;3.88;;;;;;;;;;5056782;28;20871;-82
2023/12/15 01:24:33;;;;;;;4.25;3.95;;;;;;;;;;5072677;28;20407;-82
2023/12/15 01:26:59;;;;;;;4.50;4.15;;;;;;;;;;5063511;28;20374;-82
2023/12/15 01:29:25;;;;;;;4.30;4.00;;;;;;;;;;5061500;28;20372;-82
2023/12/15 01:31:51;;;;;;;4.53;4.22;;;;;;;;;;5047390;28;20461;-81
2023/12/15 01:34:17;;;;;;;4.20;3.80;;;;;;;;;;5056157;28;20808;-82
2023/12/15 01:36:43;;;;;;;4.00;3.70;;;;;;;;;;5056487;28;20405;-82
2023/12/15 01:39:09;;;;;;;3.80;3.50;;;;;;;;;;5055086;28;20396;-82
2023/12/15 01:41:35;;;;;;;3.63;3.33;;;;;;;;;;5056305;28;20401;-81
2023/12/15 01:44:01;;;;;;;3.83;3.40;;;;;;;;;;5056390;28;20578;-82
2023/12/15 01:46:27;;;;;;;3.60;3.17;;;;;;;;;;5056761;28;20409;-82
2023/12/15 01:48:53;;;;;;;3.30;3.10;;;;;;;;;;5062900;28;20415;-81
2023/12/15 01:51:19;;;;;;;4.88;3.58;;;;;;;;;;5068855;28;20377;-81
2023/12/15 01:53:45;;;;;;;3.88;3.53;;;;;;;;;;5071592;28;20392;-81
2023/12/15 01:56:12;;;;;;;3.70;3.40;;;;;;;;;;5075711;28;20376;-81
2023/12/15 01:58:38;;;;;;;3.90;3.60;;;;;;;;;;5069500;28;20390;-82
2023/12/15 02:01:04;;;;;;;4.18;3.75;;;;;;;;;;5055819;28;20867;-82
2023/12/15 02:03:34;;;;;;;3.97;3.58;;;;;;;;;;5070407;28;20411;-82
2023/12/15 02:06:00;;;;;;;3.97;3.67;;;;;;;;;;5075860;28;20411;-82
2023/12/15 02:08:26;;;;;;;3.80;3.50;;;;;;;;;;5072564;28;20382;-81
2023/12/15 02:10:52;;;;;;;3.63;3.33;;;;;;;;;;5064714;28;20378;-81
2023/12/15 02:13:18;;;;;;;3.75;3.45;;;;;;;;;;5060584;28;20377;-81
2023/12/15 02:15:44;;;;;;;3.50;3.20;;;;;;;;;;5055428;28;20464;-81
2023/12/15 02:18:10;;;;;;;3.05;2.85;;;;;;;;;;5055351;28;20382;-81
2023/12/15 02:20:36;;;;;;;3.65;3.15;;;;;;;;;;5074150;28;20738;-81
2023/12/15 02:23:02;;;;;;;3.10;2.90;;;;;;;;;;5075135;28;20376;-81
2023/12/15 02:25:28;;;;;;;3.90;3.60;;;;;;;;;;5073171;28;20919;-81
2023/12/15 02:27:54;;;;;;;4.05;3.75;;;;;;;;;;5055347;28;20373;-81
2023/12/15 02:30:20;;;;;;;3.60;3.30;;;;;;;;;;5055112;28;20405;-81
2023/12/15 02:32:46;;;;;;;3.85;3.53;;;;;;;;;;5061904;28;20868;-81
2023/12/15 02:35:14;;;;;;;3.50;3.20;;;;;;;;;;5062706;28;20389;-82
2023/12/15 02:37:40;;;;;;;3.60;3.30;;;;;;;;;;5055034;28;20385;-82
2023/12/15 02:40:06;;;;;;;3.65;3.35;;;;;;;;;;5045414;28;20394;-82
2023/12/15 02:42:32;;;;;;;3.60;3.30;;;;;;;;;;5057975;28;20873;-82
2023/12/15 02:45:00;;;;;;;4.05;2.90;;;;;;;;;;5055151;28;20445;-80
2023/12/15 02:47:26;;;;;;;3.70;3.40;;;;;;;;;;5056955;28;20405;-80
2023/12/15 02:49:54;;;;;;;4.55;3.30;;;;;;;;;;5054596;28;20469;-81
2023/12/15 02:52:20;;;;;;;3.65;3.35;;;;;;;;;;5054546;28;20384;-81
2023/12/15 02:54:46;;;;;;;3.75;3.45;;;;;;;;;;5073378;28;20379;-81
2023/12/15 02:57:12;;;;;;;3.53;3.22;;;;;;;;;;5074690;28;20564;-81
2023/12/15 02:59:38;;;;;;;3.20;2.97;;;;;;;;;;5073803;28;20396;-81
2023/12/15 03:02:04;;;;;;;3.60;3.30;;;;;;;;;;5065761;28;20887;-81
2023/12/15 03:04:30;;;;;;;3.97;3.67;;;;;;;;;;5055403;28;20433;-81
2023/12/15 03:06:56;;;;;;;3.72;3.38;;;;;;;;;;5067508;28;20484;-81
2023/12/15 03:09:22;;;;;;;3.40;3.10;;;;;;;;;;5054515;28;20377;-81
2023/12/15 03:11:49;;;;;;;3.28;3.08;;;;;;;;;;5054361;28;20386;-80
2023/12/15 03:14:15;;;;;;;3.60;3.30;;;;;;;;;;5054652;28;20413;-80
2023/12/15 03:16:41;;;;;;;4.13;3.70;;;;;;;;;;5054674;28;20400;-80
2023/12/15 03:19:07;;;;;;;3.70;3.40;;;;;;;;;;5060004;28;20409;-80
2023/12/15 03:21:33;;;;;;;3.72;3.38;;;;;;;;;;5069687;28;20470;-80
2023/12/15 03:23:59;;;;;;;4.07;3.65;;;;;;;;;;5066975;28;20412;-81
2023/12/15 03:26:26;;;;;;;4.00;3.65;;;;;;;;;;5054376;28;20739;-81
2023/12/15 03:28:52;;;;;;;5.13;4.63;;;;;;;;;;5068676;28;20404;-81
2023/12/15 03:31:18;;;;;;;5.07;4.60;;;;;;;;;;5054695;28;21079;-81
2023/12/15 03:33:44;;;;;;;4.70;4.20;;;;;;;;;;5054267;28;20405;-81
2023/12/15 03:36:10;;;;;;;4.55;4.15;;;;;;;;;;5054583;28;20396;-81
2023/12/15 03:38:36;;;;;;;3.95;3.65;;;;;;;;;;5055414;28;20875;-81
2023/12/15 03:41:02;;;;;;;4.00;3.70;;;;;;;;;;5058425;28;20385;-81
2023/12/15 03:43:28;;;;;;;3.42;3.13;;;;;;;;;;5068103;28;20757;-81
2023/12/15 03:45:54;;;;;;;3.42;3.22;;;;;;;;;;5054795;28;20378;-81
2023/12/15 03:48:20;;;;;;;3.17;2.97;;;;;;;;;;5054548;28;20433;-81
2023/12/15 03:50:46;;;;;;;2.95;2.75;;;;;;;;;;5054047;28;20859;-81
2023/12/15 03:53:12;;;;;;;2.90;2.70;;;;;;;;;;5060215;28;20400;-81
2023/12/15 03:55:38;;;;;;;2.83;2.63;;;;;;;;;;5074539;28;20805;-81
2023/12/15 03:58:04;;;;;;;2.80;2.60;;;;;;;;;;5070009;28;20377;-81
2023/12/15 04:00:30;;;;;;;3.30;3.00;;;;;;;;;;5054159;28;20732;-81
2023/12/15 04:02:56;;;;;;;2.90;2.70;;;;;;;;;;5055606;28;20377;-82
2023/12/15 04:05:22;;;;;;;2.67;2.47;;;;;;;;;;5066321;28;20401;-81
2023/12/15 04:07:48;;;;;;;3.00;2.75;;;;;;;;;;5054262;28;20455;-81
2023/12/15 04:10:14;;;;;;;3.25;2.90;;;;;;;;;;5054612;28;20373;-81
2023/12/15 04:12:40;;;;;;;3.70;3.40;;;;;;;;;;5054436;28;20393;-81
2023/12/15 04:15:08;;;;;;;3.55;3.25;;;;;;;;;;5053657;28;20464;-81
2023/12/15 04:17:34;;;;;;;3.22;2.92;;;;;;;;;;5054010;28;20389;-81
2023/12/15 04:20:00;;;;;;;3.42;3.13;;;;;;;;;;5053844;28;20882;-82
2023/12/15 04:22:26;;;;;;;3.40;3.20;;;;;;;;;;5062346;28;20449;-81
2023/12/15 04:24:52;;;;;;;4.53;4.13;;;;;;;;;;5058779;28;20932;-81
2023/12/15 04:27:18;;;;;;;4.90;4.50;;;;;;;;;;5053689;28;20385;-81
2023/12/15 04:29:44;;;;;;;5.05;4.65;;;;;;;;;;5053711;28;20374;-81
2023/12/15 04:32:12;;;;;;;5.13;4.72;;;;;;;;;;5053831;28;20786;-81
2023/12/15 04:34:39;;;;;;;5.90;5.05;;;;;;;;;;5053884;28;20476;-81
2023/12/15 04:37:05;;;;;;;5.40;4.90;;;;;;;;;;5053399;28;20377;-81
2023/12/15 04:39:31;;;;;;;7.30;4.90;;;;;;;;;;5053773;28;20389;-81
2023/12/15 04:41:57;;;;;;;4.50;4.10;;;;;;;;;;5068647;28;20401;-81
2023/12/15 04:44:23;;;;;;;5.10;4.70;;;;;;;;;;5064605;28;20455;-81
2023/12/15 04:46:50;;;;;;;4.57;4.18;;;;;;;;;;5053159;28;20381;-81
2023/12/15 04:49:16;;;;;;;4.87;4.40;;;;;;;;;;5053486;28;20460;-81
2023/12/15 04:51:42;;;;;;;4.45;4.05;;;;;;;;;;5061339;28;20376;-81
2023/12/15 04:54:08;;;;;;;4.38;3.92;;;;;;;;;;5069441;28;20750;-81
2023/12/15 04:56:34;;;;;;;4.23;3.93;;;;;;;;;;5067234;28;20393;-81
2023/12/15 04:59:01;;;;;;;4.75;3.95;;;;;;;;;;5052729;28;20448;-81
2023/12/15 05:01:27;;;;;;;4.25;3.85;;;;;;;;;;5052987;28;20468;-81
2023/12/15 05:03:53;;;;;;;4.43;4.03;;;;;;;;;;5053318;28;20409;-81
2023/12/15 05:06:23;;;;;;;4.22;3.83;;;;;;;;;;5066981;28;20777;-81
2023/12/15 05:08:50;;;;;;;3.97;3.67;;;;;;;;;;5053276;28;20378;-81
2023/12/15 05:11:16;;;;;;;4.23;3.83;;;;;;;;;;5053370;28;20379;-81
2023/12/15 05:13:42;;;;;;;4.93;4.50;;;;;;;;;;5067996;28;20389;-81
2023/12/15 05:16:09;;;;;;;5.10;4.60;;;;;;;;;;5056592;28;20894;-81
2023/12/15 05:18:35;;;;;;;5.13;4.63;;;;;;;;;;5056713;28;20396;-81
2023/12/15 05:21:01;;;;;;;5.53;5.00;;;;;;;;;;5067281;28;20387;-81
2023/12/15 05:23:27;;;;;;;6.15;5.57;;;;;;;;;;5059893;28;20407;-81
2023/12/15 05:25:53;;;;;;;6.82;5.90;;;;;;;;;;5061961;28;20758;-81
2023/12/15 05:28:20;;;;;;;6.28;5.70;;;;;;;;;;5056290;28;20488;-81
2023/12/15 05:30:46;;;;;;;6.22;5.72;;;;;;;;;;5056437;28;20373;-81
2023/12/15 05:33:12;;;;;;;6.57;5.97;;;;;;;;;;5057317;28;20385;-81
2023/12/15 05:35:38;;;;;;;5.70;5.18;;;;;;;;;;5056751;28;20842;-81
2023/12/15 05:38:04;;;;;;;6.13;5.63;;;;;;;;;;5056353;28;20438;-81
2023/12/15 05:40:30;;;;;;;6.03;5.43;;;;;;;;;;5061473;28;20431;-81
2023/12/15 05:42:56;;;;;;;5.93;5.32;;;;;;;;;;5056444;28;20461;-81
2023/12/15 05:45:22;;;;;;;5.40;5.00;;;;;;;;;;5056229;28;20875;-81
2023/12/15 05:47:49;;;;;;;5.47;4.82;;;;;;;;;;5056370;28;20432;-81
2023/12/15 05:50:15;;;;;;;5.97;5.47;;;;;;;;;;5056049;28;20590;-81
2023/12/15 05:52:41;;;;;;;5.95;5.38;;;;;;;;;;5055381;28;20388;-81
2023/12/15 05:55:07;;;;;;;5.50;5.05;;;;;;;;;;5063608;28;20388;-81
2023/12/15 05:57:33;;;;;;;5.65;5.13;;;;;;;;;;5075471;28;20383;-81
2023/12/15 05:59:59;;;;;;;6.00;5.50;;;;;;;;;;5056236;28;20388;-81
2023/12/15 06:02:25;;;;;;;6.10;5.47;;;;;;;;;;5055813;28;20873;-81
2023/12/15 06:04:51;;;;;;;6.30;5.70;;;;;;;;;;5059453;28;20403;-81
2023/12/15 06:07:19;;;;;;;6.75;6.15;;;;;;;;;;5065645;28;20382;-81
2023/12/15 06:09:45;;;;;;;6.70;6.10;;;;;;;;;;5055490;28;20465;-81
2023/12/15 06:12:11;;;;;;;6.40;5.82;;;;;;;;;;5055592;28;20409;-81
2023/12/15 06:14:37;;;;;;;7.05;6.35;;;;;;;;;;5055869;28;20408;-81
2023/12/15 06:17:06;;;;;;;6.55;5.95;;;;;;;;;;5069193;28;20472;-81
2023/12/15 06:19:32;;;;;;;6.55;5.95;;;;;;;;;;5056067;28;20439;-81
2023/12/15 06:21:58;;;;;;;6.97;6.28;;;;;;;;;;5069723;28;20721;-81
2023/12/15 06:24:24;;;;;;;5.90;5.40;;;;;;;;;;5055172;28;20412;-81
2023/12/15 06:26:51;;;;;;;6.30;5.75;;;;;;;;;;5037201;28;20397;-81
2023/12/15 06:29:16;;;;;;;5.93;5.40;;;;;;;;;;5055704;28;20408;-81
2023/12/15 06:31:49;;;;;;;6.07;5.53;;;;;;;;;;5055992;28;20382;-81
2023/12/15 06:34:15;;;;;;;5.93;5.43;;;;;;;;;;5054810;28;20397;-81
2023/12/15 06:36:41;;;;;;;8.10;5.05;;;;;;;;;;5054921;28;20409;-81
2023/12/15 06:39:07;;;;;;;5.45;5.05;;;;;;;;;;5068969;28;20453;-81
2023/12/15 06:41:33;;;;;;;5.80;5.30;;;;;;;;;;5055185;28;20386;-81
2023/12/15 06:43:59;;;;;;;5.50;5.00;;;;;;;;;;5072774;28;20478;-81
2023/12/15 06:46:26;;;;;;;5.50;5.00;;;;;;;;;;5064795;28;20433;-81
2023/12/15 06:48:53;;;;;;;5.80;5.30;;;;;;;;;;5069051;28;20435;-81
2023/12/15 06:51:19;;;;;;;5.68;5.18;;;;;;;;;;5055023;28;20373;-81
2023/12/15 06:53:46;;;;;;;5.63;5.13;;;;;;;;;;5056847;28;20421;-81
2023/12/15 06:56:12;;;;;;;5.35;4.95;;;;;;;;;;5055551;28;20480;-81
2023/12/15 06:58:38;;;;;;;5.25;4.85;;;;;;;;;;5054850;28;20877;-81
2023/12/15 07:01:04;;;;;;;5.53;5.13;;;;;;;;;;5055006;28;20550;-81
2023/12/15 07:03:30;;;;;;;6.15;5.65;;;;;;;;;;5054662;28;20438;-81
2023/12/15 07:05:56;;;;;;;5.57;5.07;;;;;;;;;;5054474;28;20373;-81
2023/12/15 07:08:22;;;;;;;6.13;5.63;;;;;;;;;;5059601;28;20870;-81
2023/12/15 07:10:48;;;;;;;6.25;5.65;;;;;;;;;;5045672;28;20474;-81
2023/12/15 07:13:14;;;;;;;6.40;5.80;;;;;;;;;;5054493;28;20389;-81
2023/12/15 07:15:40;;;;;;;6.30;5.80;;;;;;;;;;5054219;28;20384;-82
2023/12/15 07:18:06;;;;;;;6.13;5.53;;;;;;;;;;5054084;28;20778;-81
2023/12/15 07:20:33;;;;;;;7.20;6.20;;;;;;;;;;5054462;28;20381;-82
2023/12/15 07:22:59;;;;;;;6.75;6.20;;;;;;;;;;5053671;28;20818;-81
2023/12/15 07:25:24;;;;;;;6.55;5.95;;;;;;;;;;5054199;28;20437;-81
2023/12/15 07:27:51;;;;;;;6.40;5.90;;;;;;;;;;5054158;28;20381;-81
2023/12/15 07:30:17;;;;;;;6.80;6.10;;;;;;;;;;5054194;28;20370;-81
2023/12/15 07:32:43;;;;;;;6.45;5.95;;;;;;;;;;5055913;28;20770;-81
2023/12/15 07:35:09;;;;;;;7.20;6.60;;;;;;;;;;5059090;28;20400;-81
2023/12/15 07:37:35;;;;;;;6.88;6.28;;;;;;;;;;5054400;28;20386;-81
2023/12/15 07:40:03;;;;;;;7.20;6.20;;;;;;;;;;5054523;28;20914;-81
2023/12/15 07:42:29;;;;;;;7.15;6.55;;;;;;;;;;5059683;28;20901;-81
2023/12/15 07:44:55;;;;;;;7.03;6.43;;;;;;;;;;5062514;28;20405;-81
2023/12/15 07:47:24;;;;;;;8.80;7.65;;;;;;;;;;5057206;28;20400;-81
2023/12/15 07:49:50;;;;;;;9.18;8.30;;;;;;;;;;5074163;28;20368;-81
2023/12/15 07:52:16;;;;;;;8.95;8.10;;;;;;;;;;5058197;28;20488;-81
2023/12/15 07:54:42;;;;;;;8.98;8.07;;;;;;;;;;5071945;28;20372;-81
2023/12/15 07:57:08;;;;;;;8.43;7.63;;;;;;;;;;5062920;28;20385;-81
2023/12/15 07:59:35;;;;;;;9.82;8.50;;;;;;;;;;5053546;28;20468;-81
2023/12/15 08:02:02;;;;;;;9.50;8.60;;;;;;;;;;5053754;28;20393;-81
2023/12/15 08:04:28;;;;;;;8.88;8.07;;;;;;;;;;5053179;28;20432;-81
2023/12/15 08:06:54;;;;;;;9.23;8.32;;;;;;;;;;5053428;28;20481;-81
2023/12/15 08:09:20;;;;;;;8.40;7.70;;;;;;;;;;5053993;28;20445;-81
2023/12/15 08:11:46;;;;;;;8.82;7.93;;;;;;;;;;5053748;28;20409;-81
2023/12/15 08:14:12;;;;;;;10.65;7.95;;;;;;;;;;5053840;28;20435;-81
2023/12/15 08:16:38;;;;;;;7.90;7.20;;;;;;;;;;5049727;28;20393;-81
2023/12/15 08:19:06;;;;;;;9.15;7.47;;;;;;;;;;5054199;28;20476;-81
2023/12/15 08:21:32;;;;;;;9.05;7.57;;;;;;;;;;5067363;28;20718;-81
2023/12/15 08:23:58;;;;;;;8.63;7.50;;;;;;;;;;5053665;28;20411;-81
2023/12/15 08:26:29;;;;;;;8.30;7.43;;;;;;;;;;5053940;28;20864;-81
2023/12/15 08:28:55;;;;;;;7.63;6.90;;;;;;;;;;5053784;28;20445;-81
2023/12/15 08:31:22;;;;;;;8.18;7.20;;;;;;;;;;5053870;28;20373;-81
2023/12/15 08:33:48;;;;;;;7.13;6.53;;;;;;;;;;5053684;28;20421;-81
2023/12/15 08:36:14;;;;;;;8.07;7.30;;;;;;;;;;5053741;28;20890;-81
2023/12/15 08:38:41;;;;;;;7.85;7.07;;;;;;;;;;5053589;28;20385;-81
2023/12/15 08:41:07;;;;;;;7.65;6.88;;;;;;;;;;5062364;28;20393;-81
2023/12/15 08:43:33;;;;;;;7.95;7.25;;;;;;;;;;5053293;28;20815;-81
2023/12/15 08:45:59;;;;;;;8.25;7.45;;;;;;;;;;5053735;28;20424;-81
2023/12/15 08:48:25;;;;;;;9.03;7.90;;;;;;;;;;5067160;28;20416;-81
2023/12/15 08:50:51;;;;;;;9.43;7.82;;;;;;;;;;5059177;28;20387;-81
2023/12/15 08:53:18;;;;;;;8.73;7.90;;;;;;;;;;5064148;28;20383;-81
2023/12/15 08:55:44;;;;;;;8.57;7.70;;;;;;;;;;5077825;28;20387;-82
2023/12/15 08:58:10;;;;;;;8.10;7.40;;;;;;;;;;5063561;28;20375;-82
2023/12/15 09:00:36;;;;;;;8.10;7.30;;;;;;;;;;5068692;28;20389;-82
2023/12/15 09:03:02;;;;;;;8.85;7.90;;;;;;;;;;5042804;28;20487;-81
2023/12/15 09:05:28;;;;;;;8.33;7.53;;;;;;;;;;5058917;28;20409;-82
2023/12/15 09:07:54;;;;;;;7.40;6.68;;;;;;;;;;5058120;28;20391;-82
2023/12/15 09:10:22;;;;;;;7.68;6.97;;;;;;;;;;5064783;28;20909;-82
2023/12/15 09:12:48;;;;;;;8.20;7.40;;;;;;;;;;5064734;28;20381;-82
2023/12/15 09:15:14;;;;;;;9.35;7.55;;;;;;;;;;5062444;28;20881;-83
2023/12/15 09:17:44;;;;;;;8.70;8.00;;;;;;;;;;5048827;28;20468;-82
2023/12/15 09:20:10;;;;;;;8.35;7.55;;;;;;;;;;5061197;28;20380;-82
2023/12/15 09:22:37;;;;;;;9.35;8.35;;;;;;;;;;5077817;28;20375;-83
2023/12/15 09:25:04;;;;;;;8.77;7.88;;;;;;;;;;5061324;28;20528;-82
2023/12/15 09:27:30;;;;;;;9.00;8.20;;;;;;;;;;5065805;28;20865;-82
2023/12/15 09:29:56;;;;;;;9.18;8.27;;;;;;;;;;5075381;28;20378;-82
2023/12/15 09:32:22;;;;;;;11.67;10.20;;;;;;;;;;5057506;28;20377;-82
2023/12/15 09:34:48;;;;;;;9.60;8.70;;;;;;;;;;5056503;28;20439;-82
2023/12/15 09:37:14;;;;;;;9.27;8.32;;;;;;;;;;5056624;28;20439;-82
2023/12/15 09:39:40;;;;;;;9.45;8.55;;;;;;;;;;5061661;28;20768;-82
2023/12/15 09:42:06;;;;;;;8.77;7.80;;;;;;;;;;5062719;28;20393;-83
2023/12/15 09:44:32;;;;;;;8.80;7.90;;;;;;;;;;5068175;28;20408;-83
2023/12/15 09:46:59;;;;;;;9.73;7.88;;;;;;;;;;5055930;28;20470;-82
2023/12/15 09:49:26;;;;;;;8.15;7.35;;;;;;;;;;5063214;28;20379;-82
2023/12/15 09:51:52;;;;;;;8.02;7.10;;;;;;;;;;5063630;28;20758;-82
2023/12/15 09:54:20;;;;;;;7.75;7.05;;;;;;;;;;5070184;28;20412;-83
2023/12/15 09:56:46;;;;;;;8.18;6.53;;;;;;;;;;5056276;28;20873;-83
2023/12/15 09:59:13;;;;;;;8.40;7.13;;;;;;;;;;5056217;28;20388;-82
2023/12/15 10:01:39;;;;;;;7.93;6.95;;;;;;;;;;5055677;28;20488;-83
2023/12/15 10:04:05;;;;;;;8.43;7.20;;;;;;;;;;5057128;28;20495;-83
2023/12/15 10:06:37;;;;;;;7.70;6.90;;;;;;;;;;5055841;28;20384;-83
2023/12/15 10:09:16;;;;;;;7.00;6.30;;;;;;;;;;5056120;28;20389;-83
2023/12/15 10:11:44;;;;;;;7.63;6.88;;;;;;;;;;5056592;28;20392;-83
2023/12/15 10:14:14;;;;;;;7.70;7.00;;;;;;;;;;5056158;28;20439;-82
2023/12/15 10:16:41;;;;;;;7.00;6.30;;;;;;;;;;5056081;28;20785;-82
2023/12/15 10:19:07;;;;;;;7.43;6.75;;;;;;;;;;5057956;28;20390;-83
2023/12/15 10:21:34;;;;;;;9.52;6.68;;;;;;;;;;5056563;28;20394;-83
2023/12/15 10:24:16;;;;;;;7.50;6.63;;;;;;;;;;5056440;28;20444;-82
2023/12/15 10:26:42;;;;;;;6.95;6.35;;;;;;;;;;5038329;28;20382;-83
2023/12/15 10:29:08;;;;;;;7.00;6.40;;;;;;;;;;5055492;28;20917;-82
2023/12/15 10:31:38;;;;;;;6.85;6.25;;;;;;;;;;5055575;28;20385;-82
2023/12/15 10:34:04;;;;;;;7.13;6.43;;;;;;;;;;5056142;28;20378;-82
2023/12/15 10:36:33;;;;;;;6.78;6.18;;;;;;;;;;5055694;28;20476;-82
2023/12/15 10:39:00;;;;;;;7.07;6.38;;;;;;;;;;5056002;28;20386;-82
2023/12/15 10:41:26;;;;;;;6.50;5.90;;;;;;;;;;5056154;28;20385;-82
2023/12/15 10:43:53;;;;;;;6.90;6.30;;;;;;;;;;5068967;28;20409;-83
2023/12/15 10:46:21;;;;;;;6.67;6.07;;;;;;;;;;5056516;28;20389;-82
2023/12/15 10:48:49;;;;;;;6.40;5.87;;;;;;;;;;5056022;28;20838;-82
2023/12/15 10:51:15;;;;;;;6.57;5.97;;;;;;;;;;5056190;28;20385;-82
2023/12/15 10:53:41;;;;;;;5.95;5.43;;;;;;;;;;5065372;28;20383;-82
2023/12/15 10:56:08;;;;;;;6.80;6.00;;;;;;;;;;5059732;28;20859;-82
2023/12/15 10:58:34;;;;;;;6.05;5.45;;;;;;;;;;5055971;28;20400;-82
2023/12/15 11:01:01;;;;;;;6.25;5.68;;;;;;;;;;5056078;28;20468;-82
2023/12/15 11:03:28;;;;;;;6.07;5.57;;;;;;;;;;5038272;28;20382;-83
2023/12/15 11:05:55;;;;;;;6.07;5.50;;;;;;;;;;5055839;28;20429;-83
2023/12/15 11:08:21;;;;;;;6.32;5.72;;;;;;;;;;5056242;28;20874;-82
2023/12/15 11:10:50;;;;;;;6.60;6.00;;;;;;;;;;5056217;28;20431;-83
2023/12/15 11:13:46;;;;;;;5.95;5.45;;;;;;;;;;5055944;28;20419;-83
2023/12/15 11:16:12;;;;;;;5.88;5.38;;;;;;;;;;5034820;28;20431;-82
2023/12/15 11:18:41;;;;;;;6.30;5.70;;;;;;;;;;5056201;28;20381;-83
2023/12/15 11:21:11;;;;;;;6.03;5.43;;;;;;;;;;5056030;28;20390;-83
2023/12/15 11:23:55;;;;;;;6.18;5.57;;;;;;;;;;5055655;28;20834;-82
2023/12/15 11:26:25;;;;;;;6.22;4.95;;;;;;;;;;5056262;28;20851;-82
2023/12/15 11:28:51;;;;;;;6.20;5.70;;;;;;;;;;5067826;28;20381;-82
2023/12/15 11:31:23;;;;;;;5.53;5.03;;;;;;;;;;5054606;28;20389;-82
2023/12/15 11:33:50;;;;;;;6.25;5.65;;;;;;;;;;5054012;28;20731;-83
2023/12/15 11:36:16;;;;;;;6.18;5.65;;;;;;;;;;5055117;28;20432;-83
2023/12/15 11:38:48;;;;;;;6.45;5.78;;;;;;;;;;5055421;28;20759;-83
2023/12/15 11:41:14;;;;;;;7.03;6.10;;;;;;;;;;5055156;28;20419;-83
2023/12/15 11:43:43;;;;;;;5.47;5.00;;;;;;;;;;5055025;28;20472;-82
2023/12/15 11:46:10;;;;;;;5.68;4.40;;;;;;;;;;5054948;28;20464;-82
2023/12/15 11:48:37;;;;;;;5.22;4.82;;;;;;;;;;5068920;28;20482;-82
2023/12/15 11:51:05;;;;;;;4.97;4.55;;;;;;;;;;5069236;28;20405;-82
2023/12/15 11:53:32;;;;;;;4.38;4.07;;;;;;;;;;5063961;28;20384;-82
2023/12/15 11:56:01;;;;;;;5.03;4.60;;;;;;;;;;5060712;28;20388;-82
2023/12/15 11:58:27;;;;;;;4.90;4.50;;;;;;;;;;5054882;28;20373;-82
2023/12/15 12:00:53;;;;;;;5.15;4.65;;;;;;;;;;5037352;28;21419;-82
2023/12/15 12:03:20;;;;;;;6.00;4.82;;;;;;;;;;5055065;28;20449;-83
2023/12/15 12:05:47;;;;;;;5.68;5.18;;;;;;;;;;5054506;28;20409;-83
2023/12/15 12:08:14;;;;;;;6.30;5.70;;;;;;;;;;5058521;28;20384;-82
2023/12/15 12:10:40;;;;;;;5.90;5.40;;;;;;;;;;5065463;28;20460;-83
2023/12/15 12:13:07;;;;;;;6.63;5.93;;;;;;;;;;5055060;28;20451;-82
2023/12/15 12:15:33;;;;;;;5.93;5.32;;;;;;;;;;5055191;28;20393;-82
2023/12/15 12:17:59;;;;;;;5.68;4.82;;;;;;;;;;5055703;28;20450;-82
2023/12/15 12:20:29;;;;;;;5.72;5.22;;;;;;;;;;5054354;28;20464;-82
2023/12/15 12:22:56;;;;;;;5.78;5.28;;;;;;;;;;5054279;28;20397;-82
2023/12/15 12:25:22;;;;;;;5.97;5.45;;;;;;;;;;5054588;28;20436;-82
2023/12/15 12:27:48;;;;;;;5.85;5.25;;;;;;;;;;5055273;28;20377;-82
2023/12/15 12:30:15;;;;;;;5.72;5.22;;;;;;;;;;5055079;28;20374;-82
2023/12/15 12:32:42;;;;;;;5.60;5.10;;;;;;;;;;5064107;28;20402;-82
2023/12/15 12:35:08;;;;;;;7.20;5.30;;;;;;;;;;5059932;28;20381;-83
2023/12/15 12:37:35;;;;;;;5.40;4.67;;;;;;;;;;5054048;28;20392;-82
2023/12/15 12:40:03;;;;;;;5.15;4.68;;;;;;;;;;5055013;28;20739;-82
2023/12/15 12:42:29;;;;;;;6.75;4.90;;;;;;;;;;5060463;28;20379;-82
2023/12/15 12:44:55;;;;;;;4.90;4.50;;;;;;;;;;5063259;28;20416;-82
2023/12/15 12:47:22;;;;;;;4.80;4.40;;;;;;;;;;5061108;28;20464;-82
2023/12/15 12:49:48;;;;;;;6.68;4.90;;;;;;;;;;5075001;28;20408;-83
2023/12/15 12:52:14;;;;;;;4.97;4.57;;;;;;;;;;5072858;28;20442;-82
2023/12/15 12:54:40;;;;;;;4.85;4.40;;;;;;;;;;5069619;28;20385;-82
2023/12/15 12:57:09;;;;;;;4.70;4.30;;;;;;;;;;5054591;28;20389;-82
2023/12/15 12:59:36;;;;;;;4.85;4.45;;;;;;;;;;5068285;28;20379;-83
2023/12/15 13:02:02;;;;;;;5.07;4.60;;;;;;;;;;5057628;28;20870;-83
2023/12/15 13:04:28;;;;;;;4.72;4.30;;;;;;;;;;5054775;28;20440;-83
2023/12/15 13:06:54;;;;;;;5.40;4.72;;;;;;;;;;5054283;28;20385;-83
2023/12/15 13:09:20;;;;;;;5.10;4.60;;;;;;;;;;5054433;28;20388;-83
2023/12/15 13:11:46;;;;;;;4.75;4.35;;;;;;;;;;5054043;28;20847;-83
2023/12/15 13:14:13;;;;;;;4.95;4.13;;;;;;;;;;5053458;28;20389;-82
2023/12/15 13:16:39;;;;;;;4.82;4.40;;;;;;;;;;5068046;28;20905;-82
2023/12/15 13:19:05;;;;;;;4.85;4.45;;;;;;;;;;5054021;28;20386;-82
2023/12/15 13:21:31;;;;;;;5.85;4.70;;;;;;;;;;5053534;28;20439;-82
2023/12/15 13:23:57;;;;;;;5.60;4.82;;;;;;;;;;5053978;28;20463;-82
2023/12/15 13:26:23;;;;;;;5.32;4.82;;;;;;;;;;5069754;28;20384;-82
2023/12/15 13:28:49;;;;;;;5.80;5.18;;;;;;;;;;5069236;28;20374;-83
2023/12/15 13:31:15;;;;;;;5.97;5.13;;;;;;;;;;5066372;28;20376;-82
2023/12/15 13:33:46;;;;;;;5.50;5.00;;;;;;;;;;5071292;28;20439;-82
2023/12/15 13:36:15;;;;;;;5.22;4.82;;;;;;;;;;5058691;28;20405;-82
2023/12/15 13:38:42;;;;;;;6.05;5.10;;;;;;;;;;5058423;28;20393;-82
2023/12/15 13:41:09;;;;;;;5.93;5.38;;;;;;;;;;5058097;28;20855;-82
2023/12/15 13:43:37;;;;;;;7.97;5.57;;;;;;;;;;5071032;28;20372;-84
2023/12/15 13:46:03;;;;;;;6.40;5.03;;;;;;;;;;5058337;28;20405;-82
2023/12/15 13:48:29;;;;;;;5.18;4.78;;;;;;;;;;5070707;28;20416;-82
2023/12/15 13:50:55;;;;;;;5.40;4.82;;;;;;;;;;5058536;28;20711;-82
2023/12/15 13:53:21;;;;;;;5.10;4.60;;;;;;;;;;5063888;28;20463;-82
2023/12/15 13:55:47;;;;;;;5.32;4.82;;;;;;;;;;5063489;28;20381;-82
2023/12/15 13:58:13;;;;;;;5.60;5.10;;;;;;;;;;5071486;28;20384;-82
2023/12/15 14:00:39;;;;;;;5.20;4.70;;;;;;;;;;5056217;28;20739;-82
2023/12/15 14:03:05;;;;;;;5.20;4.65;;;;;;;;;;5038664;28;20424;-82
2023/12/15 14:05:31;;;;;;;6.45;4.70;;;;;;;;;;5057053;28;20867;-82
2023/12/15 14:07:57;;;;;;;5.03;4.53;;;;;;;;;;5057369;28;20413;-81
2023/12/15 14:10:23;;;;;;;5.07;4.57;;;;;;;;;;5057575;28;20444;-81
2023/12/15 14:12:50;;;;;;;4.88;4.47;;;;;;;;;;5056950;28;20464;-82
2023/12/15 14:15:16;;;;;;;4.80;4.40;;;;;;;;;;5056728;28;20384;-82
2023/12/15 14:17:42;;;;;;;4.80;4.40;;;;;;;;;;5057129;28;20377;-82
2023/12/15 14:20:09;;;;;;;5.47;4.97;;;;;;;;;;5070878;28;20751;-82
2023/12/15 14:22:35;;;;;;;5.03;4.57;;;;;;;;;;5056222;28;20385;-82
2023/12/15 14:25:06;;;;;;;6.97;4.90;;;;;;;;;;5056308;28;20550;-82
2023/12/15 14:27:32;;;;;;;5.67;5.07;;;;;;;;;;5057091;28;20852;-82
2023/12/15 14:29:59;;;;;;;5.13;4.63;;;;;;;;;;5056780;28;20381;-83
2023/12/15 14:32:25;;;;;;;4.90;4.50;;;;;;;;;;5056663;28;20456;-82
2023/12/15 14:34:51;;;;;;;5.60;4.82;;;;;;;;;;5056578;28;20377;-82
2023/12/15 14:37:20;;;;;;;5.03;4.53;;;;;;;;;;5055979;28;20435;-81
2023/12/15 14:39:46;;;;;;;6.28;4.55;;;;;;;;;;5054938;28;20389;-82